createdAt,value
2022-10-28T00:00:35.587Z,101810.03
2022-10-28T00:03:42.304Z,101810.34
2022-10-28T00:06:46.176Z,101814.50
2022-10-28T00:09:50.931Z,101811.28
2022-10-28T00:12:56.420Z,101816.50
2022-10-28T00:16:11.838Z,101803.59
2022-10-28T00:19:17.199Z,101799.59
2022-10-28T00:22:23.320Z,101797.75
2022-10-28T00:25:28.651Z,101801.66
2022-10-28T00:28:34.818Z,101802.25
2022-10-28T00:31:40.563Z,101810.91
2022-10-28T00:34:48.546Z,101812.59
2022-10-28T00:37:58.753Z,101818.47
2022-10-28T00:41:08.478Z,101810.91
2022-10-28T00:44:34.178Z,101811.91
2022-10-28T00:47:43.764Z,101806.03
2022-10-28T00:50:50.194Z,101805.72
2022-10-28T00:54:00.000Z,101804.31
2022-10-28T00:57:07.178Z,101798.59
2022-10-28T01:00:17.945Z,101796.22
2022-10-28T01:03:25.655Z,101796.09
2022-10-28T01:06:31.785Z,101801.09
2022-10-28T01:09:40.169Z,101801.53
2022-10-28T01:12:48.714Z,101794.00
2022-10-28T01:16:04.436Z,101796.94
2022-10-28T01:19:28.794Z,101802.53
2022-10-28T01:22:44.301Z,101791.22
2022-10-28T01:25:52.733Z,101799.19
2022-10-28T01:29:19.103Z,101789.22
2022-10-28T01:32:26.340Z,101787.53
2022-10-28T01:35:39.088Z,101786.84
2022-10-28T01:38:54.217Z,101788.38
2022-10-28T01:42:02.516Z,101782.63
2022-10-28T01:45:08.159Z,101787.81
2022-10-28T01:48:31.579Z,101784.19
2022-10-28T01:51:48.842Z,101781.78
2022-10-28T01:55:01.087Z,101787.84
2022-10-28T01:58:08.790Z,101773.28
2022-10-28T02:01:17.085Z,101776.63
2022-10-28T02:04:25.821Z,101780.13
2022-10-28T02:07:33.330Z,101775.38
2022-10-28T02:10:45.308Z,101776.75
2022-10-28T02:13:56.812Z,101775.06
2022-10-28T02:17:20.162Z,101777.47
2022-10-28T02:20:31.797Z,101774.94
2022-10-28T02:23:44.726Z,101778.87
2022-10-28T02:26:55.859Z,101785.87
2022-10-28T02:30:08.277Z,101777.75
2022-10-28T02:33:17.086Z,101776.06
2022-10-28T02:36:25.989Z,101776.34
2022-10-28T02:39:32.919Z,101769.75
2022-10-28T02:42:42.912Z,101773.13
2022-10-28T02:45:52.923Z,101785.31
2022-10-28T02:49:04.290Z,101771.16
2022-10-28T02:52:11.994Z,101770.31
2022-10-28T02:55:22.134Z,101779.28
2022-10-28T02:58:29.285Z,101766.00
2022-10-28T03:01:35.561Z,101769.34
2022-10-28T03:04:42.553Z,101768.91
2022-10-28T03:07:50.738Z,101771.31
2022-10-28T03:10:59.000Z,101764.88
2022-10-28T03:14:09.604Z,101768.38
2022-10-28T03:17:18.005Z,101769.75
2022-10-28T03:20:23.070Z,101771.03
2022-10-28T03:23:29.788Z,101776.66
2022-10-28T03:26:36.542Z,101775.94
2022-10-28T03:29:45.710Z,101772.59
2022-10-28T03:32:53.246Z,101774.09
2022-10-28T03:36:01.779Z,101772.72
2022-10-28T03:39:09.612Z,101775.25
2022-10-28T03:42:17.277Z,101766.00
2022-10-28T03:45:24.178Z,101767.53
2022-10-28T03:48:31.764Z,101771.47
2022-10-28T03:51:38.550Z,101758.72
2022-10-28T03:54:48.066Z,101770.06
2022-10-28T03:57:56.741Z,101767.28
2022-10-28T04:01:03.163Z,101771.59
2022-10-28T04:04:12.305Z,101775.06
2022-10-28T04:07:19.158Z,101764.31
2022-10-28T04:10:25.167Z,101770.91
2022-10-28T04:13:30.664Z,101773.03
2022-10-28T04:16:37.945Z,101760.97
2022-10-28T04:19:47.378Z,101758.59
2022-10-28T04:22:56.170Z,101763.06
2022-10-28T04:26:03.700Z,101753.97
2022-10-28T04:29:14.275Z,101748.94
2022-10-28T04:32:18.972Z,101741.34
2022-10-28T04:35:24.998Z,101740.94
2022-10-28T04:38:32.140Z,101740.97
2022-10-28T04:41:39.025Z,101735.06
2022-10-28T04:44:44.754Z,101736.31
2022-10-28T04:47:50.280Z,101733.41
2022-10-28T04:50:54.939Z,101736.91
2022-10-28T04:54:01.539Z,101733.94
2022-10-28T04:57:06.523Z,101737.44
2022-10-28T05:00:11.335Z,101729.22
2022-10-28T05:03:17.474Z,101730.62
2022-10-28T05:06:22.816Z,101718.59
2022-10-28T05:09:27.276Z,101734.38
2022-10-28T05:12:31.901Z,101736.19
2022-10-28T05:15:35.715Z,101731.72
2022-10-28T05:18:42.117Z,101734.09
2022-10-28T05:21:46.866Z,101733.25
2022-10-28T05:24:53.098Z,101734.34
2022-10-28T05:28:03.713Z,101732.72
2022-10-28T05:31:08.944Z,101735.75
2022-10-28T05:34:12.896Z,101737.88
2022-10-28T05:37:17.150Z,101744.03
2022-10-28T05:40:21.730Z,101746.25
2022-10-28T05:43:25.486Z,101747.53
2022-10-28T05:46:30.343Z,101749.34
2022-10-28T05:49:34.614Z,101751.31
2022-10-28T05:52:38.023Z,101752.28
2022-10-28T05:55:46.673Z,101759.44
2022-10-28T05:58:52.077Z,101760.41
2022-10-28T06:01:55.953Z,101764.44
2022-10-28T06:04:59.705Z,101768.06
2022-10-28T06:08:04.727Z,101773.69
2022-10-28T06:11:07.504Z,101784.84
2022-10-28T06:14:10.407Z,101778.44
2022-10-28T06:17:13.789Z,101779.53
2022-10-28T06:20:17.438Z,101777.19
2022-10-28T06:23:22.086Z,101780.13
2022-10-28T06:26:25.657Z,101772.41
2022-10-28T06:29:31.978Z,101775.50
2022-10-28T06:32:35.661Z,101778.72
2022-10-28T06:35:38.954Z,101790.06
2022-10-28T06:38:43.442Z,101782.78
2022-10-28T06:41:47.200Z,101787.41
2022-10-28T06:44:50.821Z,101788.38
2022-10-28T06:47:56.948Z,101786.56
2022-10-28T06:50:59.984Z,101790.19
2022-10-28T06:54:03.588Z,101788.25
2022-10-28T06:57:07.459Z,101789.91
2022-10-28T07:00:10.717Z,101783.91
2022-10-28T07:03:13.960Z,101793.69
2022-10-28T07:06:17.394Z,101806.56
2022-10-28T07:09:21.379Z,101800.28
2022-10-28T07:12:26.580Z,101801.84
2022-10-28T07:15:30.677Z,101799.19
2022-10-28T07:18:33.634Z,101797.91
2022-10-28T07:21:36.156Z,101798.06
2022-10-28T07:24:39.288Z,101795.25
2022-10-28T07:27:43.065Z,101793.88
2022-10-28T07:30:46.180Z,101802.53
2022-10-28T07:33:52.882Z,101797.19
2022-10-28T07:36:57.105Z,101791.19
2022-10-28T07:40:00.458Z,101798.47
2022-10-28T07:43:04.346Z,101804.94
2022-10-28T07:46:08.368Z,101809.37
2022-10-28T07:49:14.947Z,101818.31
2022-10-28T07:52:19.438Z,101814.44
2022-10-28T07:55:23.514Z,101812.44
2022-10-28T07:58:26.931Z,101811.22
2022-10-28T08:01:30.572Z,101805.59
2022-10-28T08:04:34.134Z,101805.44
2022-10-28T08:07:39.064Z,101806.84
2022-10-28T08:10:43.305Z,101802.22
2022-10-28T08:13:48.021Z,101797.31
2022-10-28T08:16:52.399Z,101784.44
2022-10-28T08:19:56.282Z,101787.00
2022-10-28T08:23:06.654Z,101783.34
2022-10-28T08:26:10.551Z,101780.38
2022-10-28T08:29:13.562Z,101775.91
2022-10-28T08:32:16.143Z,101780.25
2022-10-28T08:35:19.175Z,101783.56
2022-10-28T08:38:22.153Z,101792.22
2022-10-28T08:41:30.083Z,101801.69
2022-10-28T08:45:03.302Z,101800.97
2022-10-28T08:48:15.424Z,101809.50
2022-10-28T08:51:24.945Z,101814.09
2022-10-28T08:54:33.393Z,101806.75
2022-10-28T08:57:40.231Z,101807.25
2022-10-28T09:00:46.616Z,101798.03
2022-10-28T09:03:51.275Z,101803.41
2022-10-28T09:06:55.111Z,101813.59
2022-10-28T09:09:59.756Z,101810.94
2022-10-28T09:13:12.711Z,101822.63
2022-10-28T09:16:18.954Z,101819.69
2022-10-28T09:19:26.710Z,101820.00
2022-10-28T09:22:36.630Z,101814.78
2022-10-28T09:25:54.679Z,101807.44
2022-10-28T09:29:16.341Z,101814.88
2022-10-28T09:32:22.844Z,101817.63
2022-10-28T09:35:27.089Z,101808.56
2022-10-28T09:38:33.076Z,101811.72
2022-10-28T09:41:38.955Z,101815.06
2022-10-28T09:44:50.502Z,101810.38
2022-10-28T09:48:12.598Z,101798.00
2022-10-28T09:51:34.958Z,101802.25
2022-10-28T09:54:42.451Z,101810.69
2022-10-28T09:57:46.056Z,101811.94
2022-10-28T10:00:50.093Z,101813.94
2022-10-28T10:03:53.778Z,101808.75
2022-10-28T10:07:00.337Z,101804.13
2022-10-28T10:10:15.248Z,101793.00
2022-10-28T10:13:22.933Z,101807.94
2022-10-28T10:16:30.461Z,101815.16
2022-10-28T10:20:13.075Z,101810.03
2022-10-28T10:23:25.351Z,101814.81
2022-10-28T10:26:32.820Z,101815.53
2022-10-28T10:29:36.403Z,101801.06
2022-10-28T10:32:39.164Z,101812.13
2022-10-28T10:35:41.961Z,101802.13
2022-10-28T10:38:49.476Z,101799.91
2022-10-28T10:41:54.311Z,101810.66
2022-10-28T10:45:01.886Z,101810.03
2022-10-28T10:48:13.974Z,101804.78
2022-10-28T10:51:17.205Z,101807.44
2022-10-28T10:54:21.311Z,101796.09
2022-10-28T10:57:25.824Z,101792.41
2022-10-28T11:00:32.332Z,101798.44
2022-10-28T11:03:38.931Z,101797.53
2022-10-28T11:06:43.881Z,101794.06
2022-10-28T11:09:49.997Z,101789.72
2022-10-28T11:12:55.040Z,101791.16
2022-10-28T11:16:02.866Z,101792.19
2022-10-28T11:19:15.981Z,101794.22
2022-10-28T11:22:24.624Z,101785.75
2022-10-28T11:25:28.649Z,101784.16
2022-10-28T11:28:34.027Z,101787.50
2022-10-28T11:31:51.430Z,101793.84
2022-10-28T11:35:04.193Z,101786.94
2022-10-28T11:38:13.179Z,101785.47
2022-10-28T11:41:34.658Z,101785.38
2022-10-28T11:47:47.399Z,101774.94
2022-10-28T11:50:58.465Z,101774.31
2022-10-28T11:54:24.077Z,101769.19
2022-10-28T11:57:27.241Z,101767.66
2022-10-28T12:00:36.063Z,101763.00
2022-10-28T12:03:42.582Z,101756.81
2022-10-28T12:06:48.655Z,101755.84
2022-10-28T12:10:07.314Z,101745.03
2022-10-28T12:13:10.502Z,101740.00
2022-10-28T12:16:19.938Z,101743.41
2022-10-28T12:19:28.113Z,101735.44
2022-10-28T12:22:50.520Z,101737.69
2022-10-28T12:25:59.723Z,101731.81
2022-10-28T12:29:05.865Z,101735.37
2022-10-28T12:32:21.050Z,101729.34
2022-10-28T12:35:26.774Z,101734.75
2022-10-28T12:38:39.460Z,101730.31
2022-10-28T12:41:51.337Z,101733.69
2022-10-28T12:44:57.488Z,101729.81
2022-10-28T12:48:04.940Z,101726.81
2022-10-28T12:51:15.789Z,101728.09
2022-10-28T12:54:29.788Z,101728.94
2022-10-28T12:57:35.994Z,101729.97
2022-10-28T13:00:44.179Z,101718.03
2022-10-28T13:03:49.310Z,101707.44
2022-10-28T13:07:11.937Z,101713.09
2022-10-28T13:13:36.654Z,101708.59
2022-10-28T13:16:51.105Z,101708.53
2022-10-28T13:20:00.420Z,101703.12
2022-10-28T13:23:27.489Z,101702.84
2022-10-28T13:26:32.747Z,101707.66
2022-10-28T13:29:37.737Z,101703.06
2022-10-28T13:32:43.707Z,101707.72
2022-10-28T13:35:49.136Z,101707.31
2022-10-28T13:38:56.689Z,101707.94
2022-10-28T13:42:23.810Z,101707.81
2022-10-28T13:45:46.978Z,101705.59
2022-10-28T13:48:50.927Z,101708.28
2022-10-28T13:52:19.838Z,101702.94
2022-10-28T13:55:26.293Z,101700.34
2022-10-28T13:58:31.622Z,101697.97
2022-10-28T14:01:39.105Z,101695.84
2022-10-28T14:04:45.553Z,101706.28
2022-10-28T14:08:02.668Z,101706.62
2022-10-28T14:11:14.384Z,101710.91
2022-10-28T14:14:20.890Z,101712.75
2022-10-28T14:17:29.712Z,101713.75
2022-10-28T14:20:35.592Z,101714.41
2022-10-28T14:23:43.113Z,101713.62
2022-10-28T14:27:05.152Z,101707.50
2022-10-28T14:30:14.708Z,101708.47
2022-10-28T14:33:21.288Z,101709.31
2022-10-28T14:36:44.108Z,101708.41
2022-10-28T14:40:16.118Z,101693.41
2022-10-28T14:43:39.258Z,101707.31
2022-10-28T14:46:45.944Z,101702.91
2022-10-28T14:50:03.033Z,101702.69
2022-10-28T14:53:08.985Z,101702.44
2022-10-28T14:56:21.343Z,101705.16
2022-10-28T14:59:27.495Z,101699.69
2022-10-28T15:02:34.913Z,101693.53
2022-10-28T15:05:38.671Z,101691.66
2022-10-28T15:08:43.261Z,101688.56
2022-10-28T15:11:48.137Z,101693.53
2022-10-28T15:14:55.472Z,101687.94
2022-10-28T15:18:01.246Z,101687.06
2022-10-28T15:21:12.652Z,101675.75
2022-10-28T15:24:17.588Z,101677.34
2022-10-28T15:27:22.886Z,101675.62
2022-10-28T15:30:26.330Z,101668.22
2022-10-28T15:33:31.163Z,101664.44
2022-10-28T15:36:36.036Z,101660.13
2022-10-28T15:39:42.968Z,101658.50
2022-10-28T15:42:59.258Z,101655.44
2022-10-28T15:46:17.018Z,101665.81
2022-10-28T15:49:44.194Z,101661.72
2022-10-28T15:52:50.620Z,101656.97
2022-10-28T15:56:10.437Z,101663.22
2022-10-28T15:59:23.013Z,101671.34
2022-10-28T16:02:42.790Z,101663.78
2022-10-28T16:05:48.955Z,101671.03
2022-10-28T16:09:06.380Z,101675.06
2022-10-28T16:12:16.144Z,101670.44
2022-10-28T16:15:18.874Z,101668.47
2022-10-28T16:18:26.828Z,101658.81
2022-10-28T16:21:33.238Z,101652.50
2022-10-28T16:24:39.659Z,101655.19
2022-10-28T16:27:45.202Z,101668.78
2022-10-28T16:30:56.104Z,101662.41
2022-10-28T16:34:01.314Z,101661.59
2022-10-28T16:37:30.531Z,101665.38
2022-10-28T16:40:50.829Z,101666.97
2022-10-28T16:44:00.184Z,101668.91
2022-10-28T16:47:17.147Z,101666.84
2022-10-28T16:50:23.929Z,101673.84
2022-10-28T16:53:29.438Z,101675.66
2022-10-28T16:56:35.196Z,101679.59
2022-10-28T16:59:43.309Z,101673.34
2022-10-28T17:02:52.357Z,101677.25
2022-10-28T17:05:58.387Z,101676.94
2022-10-28T17:09:04.174Z,101675.91
2022-10-28T17:12:13.684Z,101678.84
2022-10-28T17:15:19.498Z,101672.94
2022-10-28T17:18:25.662Z,101670.03
2022-10-28T17:21:30.830Z,101675.53
2022-10-28T17:24:37.906Z,101676.63
2022-10-28T17:27:48.826Z,101678.28
2022-10-28T17:30:54.567Z,101674.94
2022-10-28T17:33:59.339Z,101676.59
2022-10-28T17:37:08.832Z,101671.28
2022-10-28T17:40:17.817Z,101677.44
2022-10-28T17:43:24.372Z,101679.50
2022-10-28T17:46:30.946Z,101679.66
2022-10-28T17:49:38.215Z,101683.72
2022-10-28T17:52:46.672Z,101680.94
2022-10-28T17:56:03.851Z,101676.47
2022-10-28T17:59:14.190Z,101680.09
2022-10-28T18:02:20.750Z,101685.16
2022-10-28T18:05:26.898Z,101682.72
2022-10-28T18:08:38.285Z,101670.25
2022-10-28T18:11:47.726Z,101671.53
2022-10-28T18:14:55.632Z,101672.94
2022-10-28T18:18:01.245Z,101673.66
2022-10-28T18:21:06.645Z,101669.81
2022-10-28T18:24:17.743Z,101666.88
2022-10-28T18:27:25.418Z,101671.09
2022-10-28T18:30:32.206Z,101672.81
2022-10-28T18:33:37.860Z,101659.97
2022-10-28T18:36:46.691Z,101665.41
2022-10-28T18:39:53.889Z,101656.16
2022-10-28T18:43:00.439Z,101657.84
2022-10-28T18:46:07.894Z,101659.34
2022-10-28T18:49:14.343Z,101652.22
2022-10-28T18:52:19.588Z,101649.72
2022-10-28T18:55:26.687Z,101644.53
2022-10-28T18:58:33.535Z,101652.22
2022-10-28T19:01:42.009Z,101654.88
2022-10-28T19:04:46.707Z,101648.34
2022-10-28T19:07:50.783Z,101646.34
2022-10-28T19:10:57.822Z,101651.53
2022-10-28T19:14:06.169Z,101650.69
2022-10-28T19:17:12.008Z,101646.34
2022-10-28T19:20:19.292Z,101641.44
2022-10-28T19:23:25.272Z,101637.94
2022-10-28T19:26:32.695Z,101641.72
2022-10-28T19:29:38.006Z,101645.25
2022-10-28T19:32:48.014Z,101643.69
2022-10-28T19:35:54.384Z,101656.16
2022-10-28T19:38:59.936Z,101651.81
2022-10-28T19:42:06.298Z,101654.03
2022-10-28T19:45:17.426Z,101657.97
2022-10-28T19:48:25.228Z,101658.81
2022-10-28T19:51:31.004Z,101657.37
2022-10-28T19:54:37.750Z,101664.53
2022-10-28T19:57:46.541Z,101661.88
2022-10-28T20:00:58.219Z,101658.38
2022-10-28T20:04:04.694Z,101663.41
2022-10-28T20:07:10.634Z,101658.75
2022-10-28T20:10:17.292Z,101663.50
2022-10-28T20:13:22.005Z,101675.13
2022-10-28T20:16:28.276Z,101681.16
2022-10-28T20:19:34.124Z,101666.63
2022-10-28T20:22:42.445Z,101670.78
2022-10-28T20:25:49.842Z,101665.47
2022-10-28T20:28:54.895Z,101672.34
2022-10-28T20:31:59.501Z,101671.94
2022-10-28T20:35:05.614Z,101674.72
2022-10-28T20:38:11.106Z,101677.69
2022-10-28T20:41:16.629Z,101669.41
2022-10-28T20:44:20.366Z,101672.19
2022-10-28T20:47:23.979Z,101663.66
2022-10-28T20:50:27.480Z,101664.09
2022-10-28T20:53:35.763Z,101673.87
2022-10-28T20:56:43.422Z,101666.91
2022-10-28T20:59:49.949Z,101672.88
2022-10-28T21:02:56.135Z,101662.97
2022-10-28T21:06:04.698Z,101663.38
2022-10-28T21:09:10.031Z,101663.81
2022-10-28T21:12:15.706Z,101672.34
2022-10-28T21:15:19.479Z,101665.59
2022-10-28T21:18:25.843Z,101666.91
2022-10-28T21:21:33.586Z,101662.84
2022-10-28T21:24:39.637Z,101664.44
2022-10-28T21:27:46.599Z,101664.56
2022-10-28T21:30:52.666Z,101656.31
2022-10-28T21:34:00.731Z,101655.72
2022-10-28T21:37:10.208Z,101659.34
2022-10-28T21:40:18.636Z,101652.78
2022-10-28T21:43:27.535Z,101656.56
2022-10-28T21:46:32.884Z,101655.19
2022-10-28T21:49:39.763Z,101656.69
2022-10-28T21:52:46.200Z,101650.94
2022-10-28T21:55:53.037Z,101643.19
2022-10-28T21:59:00.176Z,101648.25
2022-10-28T22:02:06.578Z,101643.50
2022-10-28T22:05:12.295Z,101640.53
2022-10-28T22:08:19.745Z,101646.56
2022-10-28T22:11:26.597Z,101645.72
2022-10-28T22:14:31.944Z,101643.59
2022-10-28T22:17:41.329Z,101633.09
2022-10-28T22:20:49.596Z,101636.50
2022-10-28T22:23:58.446Z,101632.16
2022-10-28T22:27:06.440Z,101634.81
2022-10-28T22:30:14.642Z,101631.53
2022-10-28T22:33:20.435Z,101633.78
2022-10-28T22:36:27.616Z,101638.56
2022-10-28T22:39:32.906Z,101630.03
2022-10-28T22:42:40.188Z,101630.19
2022-10-28T22:45:44.814Z,101624.44
2022-10-28T22:48:50.222Z,101622.00
2022-10-28T22:51:55.953Z,101618.81
2022-10-28T22:55:03.877Z,101623.97
2022-10-28T22:58:08.961Z,101620.78
2022-10-28T23:01:17.864Z,101611.78
2022-10-28T23:04:23.489Z,101616.72
2022-10-28T23:07:29.710Z,101616.72
2022-10-28T23:10:35.997Z,101611.12
2022-10-28T23:13:41.424Z,101609.63
2022-10-28T23:16:49.581Z,101606.31
2022-10-28T23:19:55.779Z,101600.59
2022-10-28T23:23:03.061Z,101599.16
2022-10-28T23:26:09.941Z,101599.16
2022-10-28T23:29:18.321Z,101607.69
2022-10-28T23:32:24.568Z,101600.69
2022-10-28T23:35:29.970Z,101601.00
2022-10-28T23:38:39.051Z,101599.69
2022-10-28T23:41:47.392Z,101599.00
2022-10-28T23:44:53.888Z,101594.50
2022-10-28T23:47:59.671Z,101592.56
2022-10-28T23:51:06.100Z,101598.66
2022-10-28T23:54:12.755Z,101604.44
2022-10-28T23:57:20.391Z,101597.97
